Time,TemperatureF,DewpointF,PressureIn,WindDirection,WindDirectionDegrees,WindSpeedMPH,WindSpeedGustMPH,Humidity,HourlyPrecipIn,Conditions,Clouds,dailyrainin,SoftwareType,DateUTC
2013-04-27 00:00:00,54.9,43.1,30.27,East,90,0.0,0.0,64,0.09,,,0.00,WUHU216TE923,2013-04-27 04:00:00,
2013-04-27 00:01:00,54.9,43.1,30.27,East,90,0.0,0.0,64,0.09,,,0.00,WUHU216TE923,2013-04-27 04:01:00,
2013-04-27 00:06:00,54.9,43.5,30.29,East,90,0.0,0.0,65,0.11,,,0.00,WUHU216TE923,2013-04-27 04:06:00,
2013-04-27 00:11:00,54.9,43.5,30.29,East,90,0.0,0.0,65,0.08,,,0.00,WUHU216TE923,2013-04-27 04:11:00,
2013-04-27 00:16:00,54.9,43.5,30.29,East,90,0.0,0.0,65,0.08,,,0.00,WUHU216TE923,2013-04-27 04:16:00,
2013-04-27 00:21:00,54.3,44.1,30.29,WSW,248,0.2,0.2,68,0.08,,,0.00,WUHU216TE923,2013-04-27 04:21:00,
2013-04-27 00:26:00,54.3,44.1,30.26,SW,225,0.1,0.2,68,0.05,,,0.00,WUHU216TE923,2013-04-27 04:26:00,
2013-04-27 00:31:00,54.3,43.7,30.26,South,180,0.0,0.1,67,0.05,,,0.00,WUHU216TE923,2013-04-27 04:31:00,
2013-04-27 00:36:00,54.3,43.7,30.26,SE,135,0.0,0.0,67,0.05,,,0.00,WUHU216TE923,2013-04-27 04:36:00,
2013-04-27 00:41:00,54.1,43.5,30.26,ESE,113,0.0,0.0,67,0.02,,,0.00,WUHU216TE923,2013-04-27 04:41:00,
2013-04-27 00:46:00,54.1,43.9,30.25,ESE,113,0.0,0.0,68,0.02,,,0.00,WUHU216TE923,2013-04-27 04:46:00,
2013-04-27 00:53:00,54.1,43.9,30.25,NNE,23,0.0,0.0,68,0.02,,,0.00,WUHU216TE923,2013-04-27 04:53:00,
2013-04-27 00:58:00,54.1,43.5,30.25,NNE,23,0.0,0.0,67,0.05,,,0.03,WUHU216TE923,2013-04-27 04:58:00,
2013-04-27 01:03:00,54.1,44.3,30.25,NE,45,0.1,0.1,69,0.03,,,0.03,WUHU216TE923,2013-04-27 05:03:00,
2013-04-27 01:08:00,54.1,44.3,30.28,North,0,0.3,0.3,69,0.03,,,0.03,WUHU216TE923,2013-04-27 05:08:00,
2013-04-27 01:13:00,54.1,44.3,30.28,NNE,23,0.7,1.0,69,0.03,,,0.03,WUHU216TE923,2013-04-27 05:13:00,
2013-04-27 01:18:00,54.1,44.3,30.28,NNE,23,0.3,1.0,69,0.03,,,0.03,WUHU216TE923,2013-04-27 05:18:00,
2013-04-27 01:23:00,54.1,44.3,30.28,NNE,23,0.0,0.3,69,0.03,,,0.03,WUHU216TE923,2013-04-27 05:23:00,
2013-04-27 01:28:00,54.1,44.3,30.29,NNE,23,0.0,0.0,69,0.03,,,0.03,WUHU216TE923,2013-04-27 05:28:00,
2013-04-27 01:33:00,54.0,44.2,30.29,NNE,23,0.0,0.0,69,0.03,,,0.03,WUHU216TE923,2013-04-27 05:33:00,
2013-04-27 01:38:00,54.1,44.3,30.29,NNE,23,0.0,0.0,69,0.03,,,0.03,WUHU216TE923,2013-04-27 05:38:00,
2013-04-27 01:43:00,54.1,44.3,30.29,NNE,23,0.0,0.0,69,0.06,,,0.06,WUHU216TE923,2013-04-27 05:43:00,
2013-04-27 01:48:00,54.1,44.3,30.29,NNE,23,0.0,0.0,69,0.03,,,0.06,WUHU216TE923,2013-04-27 05:48:00,
2013-04-27 01:53:00,54.0,44.2,30.29,NNE,23,0.0,0.0,69,0.03,,,0.06,WUHU216TE923,2013-04-27 05:53:00,
2013-04-27 01:58:00,54.0,44.2,30.29,NNE,23,0.0,0.0,69,0.03,,,0.06,WUHU216TE923,2013-04-27 05:58:00,
2013-04-27 02:03:00,54.0,44.6,30.29,NNE,23,0.0,0.0,70,0.06,,,0.09,WUHU216TE923,2013-04-27 06:03:00,
2013-04-27 02:08:00,54.0,44.6,30.29,NNE,23,0.0,0.0,70,0.06,,,0.09,WUHU216TE923,2013-04-27 06:08:00,
2013-04-27 02:13:00,54.0,44.9,30.29,NNE,23,0.0,0.0,71,0.08,,,0.11,WUHU216TE923,2013-04-27 06:13:00,
2013-04-27 02:18:00,54.0,44.9,30.29,NNE,23,0.0,0.0,71,0.08,,,0.11,WUHU216TE923,2013-04-27 06:18:00,
2013-04-27 02:23:00,54.1,45.0,30.29,NNE,23,0.0,0.0,71,0.11,,,0.14,WUHU216TE923,2013-04-27 06:23:00,
2013-04-27 02:28:00,54.1,45.4,30.30,NNE,23,0.0,0.0,72,0.14,,,0.17,WUHU216TE923,2013-04-27 06:28:00,
2013-04-27 02:33:00,54.1,45.4,30.30,NNE,23,0.0,0.0,72,0.14,,,0.17,WUHU216TE923,2013-04-27 06:33:00,
2013-04-27 02:38:00,54.0,45.3,30.30,NNE,23,0.0,0.0,72,0.14,,,0.20,WUHU216TE923,2013-04-27 06:38:00,
2013-04-27 02:43:00,54.0,45.3,30.30,NNE,23,0.0,0.0,72,0.14,,,0.20,WUHU216TE923,2013-04-27 06:43:00,
2013-04-27 02:48:00,53.8,45.1,30.30,NNE,23,0.0,0.0,72,0.16,,,0.22,WUHU216TE923,2013-04-27 06:48:00,
2013-04-27 02:53:00,53.8,45.1,30.30,NNE,23,0.0,0.0,72,0.13,,,0.22,WUHU216TE923,2013-04-27 06:53:00,
2013-04-27 02:58:00,53.6,45.3,30.30,WSW,248,0.0,0.0,73,0.16,,,0.25,WUHU216TE923,2013-04-27 06:58:00,
2013-04-27 03:03:00,53.6,45.3,30.30,WSW,248,0.0,0.0,73,0.17,,,0.28,WUHU216TE923,2013-04-27 07:03:00,
2013-04-27 03:08:00,53.4,45.4,30.24,SSW,203,0.2,2.2,74,0.17,,,0.28,WUHU216TE923,2013-04-27 07:08:00,
2013-04-27 03:13:00,53.4,45.4,30.24,ESE,113,0.2,2.2,74,0.20,,,0.31,WUHU216TE923,2013-04-27 07:13:00,
2013-04-27 03:18:00,53.4,45.4,30.24,ESE,113,0.2,0.2,74,0.17,,,0.31,WUHU216TE923,2013-04-27 07:18:00,
2013-04-27 03:23:00,53.6,45.6,30.24,SE,135,0.3,0.3,74,0.14,,,0.31,WUHU216TE923,2013-04-27 07:23:00,
2013-04-27 03:26:00,53.6,45.6,30.27,ENE,68,0.1,0.1,74,0.19,,,0.36,WUHU216TE923,2013-04-27 07:26:00,
2013-04-27 03:28:00,53.6,45.6,30.27,ENE,68,0.1,0.3,74,0.19,,,0.36,WUHU216TE923,2013-04-27 07:28:00,
2013-04-27 03:33:00,53.6,45.6,30.27,ENE,68,0.1,0.1,74,0.19,,,0.36,WUHU216TE923,2013-04-27 07:33:00,
2013-04-27 03:38:00,53.6,45.6,30.27,East,90,0.1,0.1,74,0.17,,,0.39,WUHU216TE923,2013-04-27 07:38:00,
2013-04-27 03:43:00,53.6,45.6,30.27,ESE,113,0.0,0.1,74,0.20,,,0.42,WUHU216TE923,2013-04-27 07:43:00,
2013-04-27 03:48:00,53.6,45.6,30.25,ENE,68,0.3,1.2,74,0.20,,,0.42,WUHU216TE923,2013-04-27 07:48:00,
2013-04-27 03:53:00,53.4,45.8,30.25,East,90,0.9,1.4,75,0.14,,,0.42,WUHU216TE923,2013-04-27 07:53:00,
2013-04-27 03:58:00,53.4,45.8,30.25,ENE,68,1.0,1.4,75,0.14,,,0.42,WUHU216TE923,2013-04-27 07:58:00,
2013-04-27 04:03:00,53.4,45.8,30.25,ENE,68,0.9,1.0,75,0.14,,,0.42,WUHU216TE923,2013-04-27 08:03:00,
2013-04-27 04:08:00,53.4,45.8,30.22,ENE,68,0.6,0.9,75,0.11,,,0.42,WUHU216TE923,2013-04-27 08:08:00,
2013-04-27 04:13:00,53.4,45.8,30.22,ENE,68,0.5,1.0,75,0.11,,,0.42,WUHU216TE923,2013-04-27 08:13:00,
2013-04-27 04:18:00,53.2,45.6,30.22,ESE,113,0.6,1.0,75,0.11,,,0.42,WUHU216TE923,2013-04-27 08:18:00,
2013-04-27 04:23:00,53.2,45.6,30.22,ENE,68,0.4,0.6,75,0.06,,,0.42,WUHU216TE923,2013-04-27 08:23:00,
2013-04-27 04:28:00,53.4,45.8,30.21,ENE,68,0.1,1.0,75,0.03,,,0.42,WUHU216TE923,2013-04-27 08:28:00,
2013-04-27 04:33:00,53.4,45.8,30.21,North,0,0.1,1.0,75,0.00,,,0.42,WUHU216TE923,2013-04-27 08:33:00,
2013-04-27 04:38:00,53.4,45.8,30.21,North,0,0.1,0.1,75,0.00,,,0.42,WUHU216TE923,2013-04-27 08:38:00,
2013-04-27 04:43:00,53.4,45.8,30.21,North,0,0.0,0.1,75,0.03,,,0.45,WUHU216TE923,2013-04-27 08:43:00,
2013-04-27 04:48:00,53.4,45.8,30.25,North,0,0.0,0.0,75,0.03,,,0.45,WUHU216TE923,2013-04-27 08:48:00,
2013-04-27 04:53:00,53.4,45.8,30.25,North,0,0.3,1.3,75,0.06,,,0.48,WUHU216TE923,2013-04-27 08:53:00,
2013-04-27 04:58:00,53.4,45.8,30.25,NNE,23,0.8,1.3,75,0.08,,,0.50,WUHU216TE923,2013-04-27 08:58:00,
2013-04-27 05:03:00,53.2,45.9,30.25,NNE,23,0.5,1.0,76,0.08,,,0.50,WUHU216TE923,2013-04-27 09:03:00,
2013-04-27 05:08:00,53.2,45.9,30.25,NNE,23,0.1,0.5,76,0.11,,,0.53,WUHU216TE923,2013-04-27 09:08:00,
2013-04-27 05:13:00,53.2,45.9,30.25,NNE,23,0.3,1.3,76,0.11,,,0.53,WUHU216TE923,2013-04-27 09:13:00,
2013-04-27 05:18:00,53.2,45.9,30.25,NNE,23,0.3,1.3,76,0.14,,,0.56,WUHU216TE923,2013-04-27 09:18:00,
2013-04-27 05:23:00,53.1,45.8,30.25,ENE,68,0.1,0.3,76,0.17,,,0.59,WUHU216TE923,2013-04-27 09:23:00,
2013-04-27 05:28:00,53.2,45.9,30.25,ENE,68,0.0,0.1,76,0.22,,,0.64,WUHU216TE923,2013-04-27 09:28:00,
2013-04-27 05:33:00,53.2,45.9,30.25,ENE,68,0.0,0.0,76,0.22,,,0.64,WUHU216TE923,2013-04-27 09:33:00,
2013-04-27 05:38:00,53.2,45.9,30.25,ENE,68,0.0,0.0,76,0.22,,,0.67,WUHU216TE923,2013-04-27 09:38:00,
2013-04-27 05:43:00,53.2,45.9,30.25,ENE,68,0.0,0.0,76,0.19,,,0.67,WUHU216TE923,2013-04-27 09:43:00,
2013-04-27 05:48:00,53.4,46.1,30.26,ENE,68,0.0,0.0,76,0.17,,,0.67,WUHU216TE923,2013-04-27 09:48:00,
2013-04-27 05:53:00,53.4,46.1,30.26,ENE,68,0.0,0.0,76,0.17,,,0.67,WUHU216TE923,2013-04-27 09:53:00,
2013-04-27 05:58:00,53.2,45.9,30.26,ENE,68,0.0,0.0,76,0.14,,,0.67,WUHU216TE923,2013-04-27 09:58:00,
2013-04-27 06:03:00,53.1,46.1,30.26,ENE,68,0.0,0.0,77,0.17,,,0.70,WUHU216TE923,2013-04-27 10:03:00,
2013-04-27 06:08:00,53.1,46.1,30.24,East,90,0.0,0.0,77,0.17,,,0.70,WUHU216TE923,2013-04-27 10:08:00,
2013-04-27 06:13:00,53.1,46.1,30.24,East,90,0.0,0.0,77,0.11,,,0.70,WUHU216TE923,2013-04-27 10:13:00,
2013-04-27 06:18:00,53.1,46.1,30.24,East,90,0.0,0.0,77,0.06,,,0.70,WUHU216TE923,2013-04-27 10:18:00,
2013-04-27 06:23:00,53.1,45.8,30.24,East,90,0.0,0.0,76,0.06,,,0.70,WUHU216TE923,2013-04-27 10:23:00,
2013-04-27 06:28:00,53.1,46.1,30.24,East,90,0.0,0.0,77,0.03,,,0.70,WUHU216TE923,2013-04-27 10:28:00,
2013-04-27 06:33:00,53.1,46.1,30.24,East,90,0.0,0.0,77,0.03,,,0.70,WUHU216TE923,2013-04-27 10:33:00,
2013-04-27 06:38:00,53.2,46.2,30.24,East,90,0.0,0.0,77,0.03,,,0.70,WUHU216TE923,2013-04-27 10:38:00,
2013-04-27 06:43:00,53.2,46.2,30.24,East,90,0.0,0.0,77,0.03,,,0.70,WUHU216TE923,2013-04-27 10:43:00,
2013-04-27 06:48:00,53.2,46.2,30.24,East,90,0.0,0.0,77,0.03,,,0.70,WUHU216TE923,2013-04-27 10:48:00,
2013-04-27 06:53:00,53.2,46.2,30.24,East,90,0.0,0.0,77,0.03,,,0.70,WUHU216TE923,2013-04-27 10:53:00,
2013-04-27 06:58:00,53.2,46.2,30.24,East,90,0.0,0.0,77,0.00,,,0.70,WUHU216TE923,2013-04-27 10:58:00,
2013-04-27 07:03:00,53.2,46.2,30.24,East,90,0.0,0.0,77,0.00,,,0.70,WUHU216TE923,2013-04-27 11:03:00,
2013-04-27 07:08:00,53.2,46.2,30.23,East,90,0.0,0.0,77,0.00,,,0.70,WUHU216TE923,2013-04-27 11:08:00,
2013-04-27 07:13:00,53.2,46.2,30.23,East,90,0.0,0.0,77,0.00,,,0.70,WUHU216TE923,2013-04-27 11:13:00,
2013-04-27 07:18:00,53.2,46.2,30.23,East,90,0.0,0.0,77,0.00,,,0.70,WUHU216TE923,2013-04-27 11:18:00,
2013-04-27 07:23:00,53.2,46.2,30.23,East,90,0.1,0.1,77,0.00,,,0.70,WUHU216TE923,2013-04-27 11:23:00,
2013-04-27 07:28:00,53.2,46.2,30.24,WSW,248,0.2,0.2,77,0.00,,,0.70,WUHU216TE923,2013-04-27 11:28:00,
2013-04-27 07:33:00,53.2,46.2,30.24,North,0,0.2,1.4,77,0.00,,,0.70,WUHU216TE923,2013-04-27 11:33:00,
2013-04-27 07:38:00,53.2,46.2,30.24,ESE,113,0.1,1.4,77,0.00,,,0.70,WUHU216TE923,2013-04-27 11:38:00,
2013-04-27 07:43:00,53.2,46.2,30.24,NW,315,0.2,0.2,77,0.00,,,0.70,WUHU216TE923,2013-04-27 11:43:00,
2013-04-27 07:48:00,53.2,46.2,30.22,NNW,338,0.1,0.2,77,0.00,,,0.70,WUHU216TE923,2013-04-27 11:48:00,
2013-04-27 07:53:00,53.4,46.4,30.22,NNE,23,0.3,1.9,77,0.02,,,0.72,WUHU216TE923,2013-04-27 11:53:00,
2013-04-27 07:58:00,53.4,46.4,30.22,NNW,338,0.5,1.9,77,0.02,,,0.72,WUHU216TE923,2013-04-27 11:58:00,
2013-04-27 08:03:00,53.4,46.4,30.22,NE,45,0.3,1.9,77,0.02,,,0.72,WUHU216TE923,2013-04-27 12:03:00,
2013-04-27 08:08:00,53.4,46.4,30.24,NE,45,0.1,0.3,77,0.02,,,0.72,WUHU216TE923,2013-04-27 12:08:00,
2013-04-27 08:13:00,53.4,46.4,30.24,NE,45,0.0,0.1,77,0.02,,,0.72,WUHU216TE923,2013-04-27 12:13:00,
2013-04-27 08:18:00,53.4,46.4,30.24,NE,45,0.0,0.0,77,0.02,,,0.72,WUHU216TE923,2013-04-27 12:18:00,
2013-04-27 08:23:00,53.4,46.4,30.24,ENE,68,0.2,0.2,77,0.02,,,0.72,WUHU216TE923,2013-04-27 12:23:00,
2013-04-27 08:28:00,53.4,46.4,30.23,ESE,113,0.2,0.2,77,0.02,,,0.72,WUHU216TE923,2013-04-27 12:28:00,
2013-04-27 08:33:00,53.4,46.4,30.23,ESE,113,0.1,0.2,77,0.02,,,0.72,WUHU216TE923,2013-04-27 12:33:00,
2013-04-27 08:38:00,53.6,46.6,30.23,North,0,0.0,0.1,77,0.05,,,0.75,WUHU216TE923,2013-04-27 12:38:00,
2013-04-27 08:43:00,53.6,46.6,30.23,ESE,113,0.0,0.0,77,0.03,,,0.75,WUHU216TE923,2013-04-27 12:43:00,
2013-04-27 08:48:00,53.8,46.8,30.22,ESE,113,0.0,0.0,77,0.03,,,0.75,WUHU216TE923,2013-04-27 12:48:00,
2013-04-27 08:53:00,54.0,47.0,30.22,NE,45,0.2,1.3,77,0.03,,,0.75,WUHU216TE923,2013-04-27 12:53:00,
2013-04-27 08:58:00,54.0,47.0,30.22,ENE,68,0.4,1.3,77,0.03,,,0.75,WUHU216TE923,2013-04-27 12:58:00,
2013-04-27 09:03:00,54.0,46.7,30.22,ENE,68,0.2,1.0,76,0.03,,,0.75,WUHU216TE923,2013-04-27 13:03:00,
2013-04-27 09:08:00,54.0,47.0,30.22,ENE,68,0.0,0.2,77,0.03,,,0.75,WUHU216TE923,2013-04-27 13:08:00,
2013-04-27 09:13:00,54.0,46.7,30.22,ENE,68,0.0,0.0,76,0.03,,,0.75,WUHU216TE923,2013-04-27 13:13:00,
2013-04-27 09:18:00,53.8,46.5,30.22,South,180,0.0,1.4,76,0.03,,,0.75,WUHU216TE923,2013-04-27 13:18:00,
2013-04-27 09:23:00,53.8,46.1,30.22,NNW,338,0.1,1.4,75,0.03,,,0.75,WUHU216TE923,2013-04-27 13:23:00,
2013-04-27 09:28:00,53.8,46.1,30.22,WSW,248,0.3,1.1,75,0.00,,,0.75,WUHU216TE923,2013-04-27 13:28:00,
2013-04-27 09:33:00,53.8,45.8,30.22,SE,135,0.2,0.3,74,0.00,,,0.75,WUHU216TE923,2013-04-27 13:33:00,
2013-04-27 09:38:00,53.8,45.8,30.22,ENE,68,0.2,0.2,74,0.00,,,0.75,WUHU216TE923,2013-04-27 13:38:00,
2013-04-27 09:43:00,53.8,45.8,30.22,SE,135,0.1,0.2,74,0.00,,,0.75,WUHU216TE923,2013-04-27 13:43:00,
2013-04-27 09:48:00,54.0,46.0,30.23,SE,135,0.0,0.1,74,0.00,,,0.75,WUHU216TE923,2013-04-27 13:48:00,
2013-04-27 09:53:00,54.0,45.6,30.23,SE,135,0.1,0.1,73,0.00,,,0.75,WUHU216TE923,2013-04-27 13:53:00,
2013-04-27 09:58:00,54.0,45.6,30.23,SSW,203,0.2,1.0,73,0.00,,,0.75,WUHU216TE923,2013-04-27 13:58:00,
2013-04-27 10:03:00,53.8,45.1,30.23,ESE,113,0.4,1.0,72,0.00,,,0.75,WUHU216TE923,2013-04-27 14:03:00,
2013-04-27 10:08:00,53.6,44.9,30.22,SSE,158,0.5,0.5,72,0.00,,,0.75,WUHU216TE923,2013-04-27 14:08:00,
2013-04-27 10:13:00,53.4,44.3,30.22,ENE,68,0.5,0.5,71,0.00,,,0.75,WUHU216TE923,2013-04-27 14:13:00,
2013-04-27 10:18:00,53.4,44.0,30.22,NNE,23,0.3,0.5,70,0.00,,,0.75,WUHU216TE923,2013-04-27 14:18:00,
2013-04-27 10:23:00,53.4,44.3,30.22,ENE,68,0.0,0.3,71,0.00,,,0.75,WUHU216TE923,2013-04-27 14:23:00,
2013-04-27 10:28:00,53.4,44.7,30.23,SW,225,0.0,1.0,72,0.00,,,0.75,WUHU216TE923,2013-04-27 14:28:00,
2013-04-27 10:33:00,53.6,45.3,30.23,WSW,248,0.1,1.0,73,0.03,,,0.78,WUHU216TE923,2013-04-27 14:33:00,
2013-04-27 10:38:00,53.8,45.4,30.23,SE,135,0.1,1.2,73,0.03,,,0.78,WUHU216TE923,2013-04-27 14:38:00,
2013-04-27 10:43:00,54.0,45.3,30.23,ENE,68,0.2,1.2,72,0.03,,,0.78,WUHU216TE923,2013-04-27 14:43:00,
2013-04-27 10:48:00,54.0,45.3,30.24,ENE,68,0.2,0.2,72,0.03,,,0.78,WUHU216TE923,2013-04-27 14:48:00,
2013-04-27 10:53:00,53.8,45.1,30.24,ENE,68,0.3,1.3,72,0.03,,,0.78,WUHU216TE923,2013-04-27 14:53:00,
2013-04-27 10:58:00,53.8,45.1,30.24,ESE,113,0.3,1.3,72,0.03,,,0.78,WUHU216TE923,2013-04-27 14:58:00,
2013-04-27 11:03:00,53.8,45.1,30.24,ESE,113,0.2,0.3,72,0.03,,,0.78,WUHU216TE923,2013-04-27 15:03:00,
2013-04-27 11:08:00,53.8,45.1,30.24,ENE,68,0.3,0.3,72,0.03,,,0.78,WUHU216TE923,2013-04-27 15:08:00,
2013-04-27 11:13:00,53.8,45.1,30.24,SSE,158,0.2,0.3,72,0.03,,,0.78,WUHU216TE923,2013-04-27 15:13:00,
2013-04-27 11:18:00,53.8,44.7,30.24,ESE,113,0.1,0.2,71,0.03,,,0.78,WUHU216TE923,2013-04-27 15:18:00,
2013-04-27 11:23:00,53.8,44.7,30.24,ENE,68,0.0,0.1,71,0.00,,,0.78,WUHU216TE923,2013-04-27 15:23:00,
2013-04-27 11:28:00,54.0,44.9,30.26,East,90,0.2,1.2,71,0.00,,,0.78,WUHU216TE923,2013-04-27 15:28:00,
2013-04-27 11:33:00,53.8,45.1,30.26,ESE,113,0.4,1.3,72,0.00,,,0.78,WUHU216TE923,2013-04-27 15:33:00,
2013-04-27 11:38:00,53.6,44.9,30.26,SSE,158,0.9,2.0,72,0.00,,,0.78,WUHU216TE923,2013-04-27 15:38:00,
2013-04-27 11:43:00,53.6,44.9,30.26,ENE,68,1.3,2.7,72,0.00,,,0.78,WUHU216TE923,2013-04-27 15:43:00,
2013-04-27 11:48:00,53.6,44.9,30.27,ENE,68,1.2,2.7,72,0.00,,,0.78,WUHU216TE923,2013-04-27 15:48:00,
2013-04-27 11:53:00,53.6,44.5,30.27,West,270,0.8,2.1,71,0.00,,,0.78,WUHU216TE923,2013-04-27 15:53:00,
2013-04-27 11:58:00,53.8,44.7,30.27,ENE,68,0.7,1.7,71,0.00,,,0.78,WUHU216TE923,2013-04-27 15:58:00,
2013-04-27 12:03:00,53.6,44.5,30.27,East,90,0.4,1.6,71,0.00,,,0.78,WUHU216TE923,2013-04-27 16:03:00,
2013-04-27 12:08:00,53.4,44.7,30.28,ESE,113,0.4,0.4,72,0.00,,,0.78,WUHU216TE923,2013-04-27 16:08:00,
2013-04-27 12:13:00,53.4,44.7,30.28,ENE,68,0.3,0.4,72,0.00,,,0.78,WUHU216TE923,2013-04-27 16:13:00,
2013-04-27 12:18:00,53.4,44.7,30.28,ENE,68,0.3,0.3,72,0.00,,,0.78,WUHU216TE923,2013-04-27 16:18:00,
2013-04-27 12:23:00,53.4,45.4,30.28,ESE,113,0.9,2.0,74,0.00,,,0.78,WUHU216TE923,2013-04-27 16:23:00,
2013-04-27 12:28:00,53.4,45.4,30.30,East,90,1.4,2.0,74,0.03,,,0.81,WUHU216TE923,2013-04-27 16:28:00,
2013-04-27 12:33:00,53.4,45.4,30.30,East,90,1.3,1.7,74,0.03,,,0.81,WUHU216TE923,2013-04-27 16:33:00,
2013-04-27 12:38:00,53.4,45.8,30.30,ENE,68,1.1,3.2,75,0.03,,,0.81,WUHU216TE923,2013-04-27 16:38:00,
2013-04-27 12:43:00,53.2,45.6,30.30,ESE,113,1.3,3.2,75,0.03,,,0.81,WUHU216TE923,2013-04-27 16:43:00,
2013-04-27 12:48:00,53.4,45.8,30.28,ENE,68,1.2,2.3,75,0.03,,,0.81,WUHU216TE923,2013-04-27 16:48:00,
2013-04-27 12:53:00,53.8,46.1,30.28,ENE,68,1.1,2.3,75,0.03,,,0.81,WUHU216TE923,2013-04-27 16:53:00,
2013-04-27 12:58:00,53.6,46.3,30.28,ESE,113,1.3,4.0,76,0.03,,,0.81,WUHU216TE923,2013-04-27 16:58:00,
2013-04-27 13:03:00,53.6,46.0,30.28,ESE,113,1.7,4.0,75,0.03,,,0.81,WUHU216TE923,2013-04-27 17:03:00,
2013-04-27 13:08:00,53.8,46.1,30.28,ESE,113,1.9,2.0,75,0.03,,,0.81,WUHU216TE923,2013-04-27 17:08:00,
2013-04-27 13:13:00,53.8,46.1,30.28,ENE,68,1.4,3.0,75,0.03,,,0.81,WUHU216TE923,2013-04-27 17:13:00,
2013-04-27 13:18:00,54.0,46.3,30.28,NE,45,1.1,3.0,75,0.00,,,0.81,WUHU216TE923,2013-04-27 17:18:00,
2013-04-27 13:23:00,53.6,45.3,30.28,East,90,1.9,3.2,73,0.00,,,0.81,WUHU216TE923,2013-04-27 17:23:00,
2013-04-27 13:28:00,53.4,44.7,30.25,NE,45,2.1,3.2,72,0.00,,,0.81,WUHU216TE923,2013-04-27 17:28:00,
2013-04-27 13:33:00,54.0,45.3,30.25,ESE,113,1.4,2.1,72,0.00,,,0.81,WUHU216TE923,2013-04-27 17:33:00,
2013-04-27 13:38:00,54.0,45.3,30.25,NE,45,1.1,2.1,72,0.00,,,0.81,WUHU216TE923,2013-04-27 17:38:00,
2013-04-27 13:43:00,54.1,45.0,30.25,ENE,68,1.6,2.8,71,0.00,,,0.81,WUHU216TE923,2013-04-27 17:43:00,
2013-04-27 13:48:00,54.1,45.0,30.24,ENE,68,1.6,2.9,71,0.00,,,0.81,WUHU216TE923,2013-04-27 17:48:00,
2013-04-27 13:53:00,54.1,44.3,30.24,ENE,68,2.0,2.9,69,0.00,,,0.81,WUHU216TE923,2013-04-27 17:53:00,
2013-04-27 13:58:00,54.1,44.3,30.24,NNE,23,2.1,2.3,69,0.00,,,0.81,WUHU216TE923,2013-04-27 17:58:00,
2013-04-27 14:03:00,54.3,44.8,30.24,NE,45,1.0,2.1,70,0.00,,,0.81,WUHU216TE923,2013-04-27 18:03:00,
2013-04-27 14:08:00,54.3,44.8,30.24,NE,45,1.0,1.0,70,0.00,,,0.81,WUHU216TE923,2013-04-27 18:08:00,
2013-04-27 14:13:00,54.7,44.8,30.24,NE,45,1.0,1.0,69,0.00,,,0.81,WUHU216TE923,2013-04-27 18:13:00,
2013-04-27 14:14:00,54.9,44.7,30.24,NE,45,1.0,1.0,68,0.00,,,0.81,WUHU216TE923,2013-04-27 18:14:00,
2013-04-27 14:18:00,54.9,44.7,30.24,NE,45,1.0,1.0,68,0.00,,,0.81,WUHU216TE923,2013-04-27 18:18:00,
2013-04-27 14:23:00,54.9,44.7,30.24,NE,45,1.0,1.0,68,0.00,,,0.81,WUHU216TE923,2013-04-27 18:23:00,